Time;durP1;ratioP1;P1;durP2;ratioP2;P2;SDS_P1;SDS_P2;PMS_P1;PMS_P2;Temp;Humidity;BMP_temperature;BMP_pressure;BME280_temperature;BME280_humidity;BME280_pressure;Samples;Min_cycle;Max_cycle;Signal;HPM_P1;HPM_P2
2023/10/30 00:01:13;;;;;;;11.57;6.90;;;;;;;-143.21;61.74;72790.09;4973459;28;20196;-84
2023/10/30 00:03:40;;;;;;;13.90;6.93;;;;;;;-143.21;61.96;72792.09;4978078;28;20203;-85
2023/10/30 00:06:14;;;;;;;17.17;6.77;;;;;;;-143.21;61.83;72792.09;4978760;28;20211;-85
2023/10/30 00:08:41;;;;;;;13.87;5.70;;;;;;;-143.21;61.91;72796.06;4971612;28;20215;-84
2023/10/30 00:11:08;;;;;;;13.07;6.17;;;;;;;-143.21;61.95;72800.03;4985421;28;20196;-85
2023/10/30 00:13:35;;;;;;;15.63;5.73;;;;;;;-143.21;62.33;72807.97;4985646;28;20204;-85
2023/10/30 00:16:02;;;;;;;11.37;5.37;;;;;;;-143.21;62.67;72811.94;4980482;28;20259;-85
2023/10/30 00:18:29;;;;;;;11.40;5.37;;;;;;;-143.21;62.75;72819.84;4978931;28;20208;-85
2023/10/30 00:20:56;;;;;;;16.10;5.70;;;;;;;-143.21;62.69;72811.94;4981240;28;20209;-84
2023/10/30 00:23:24;;;;;;;13.50;6.17;;;;;;;-143.21;62.54;72804.00;4983330;28;20204;-85
2023/10/30 00:25:51;;;;;;;11.03;6.10;;;;;;;-143.21;62.78;72807.97;4978220;28;20233;-86
2023/10/30 00:28:18;;;;;;;12.57;6.00;;;;;;;-143.21;62.68;72802.00;4983237;28;20387;-84
2023/10/30 00:30:45;;;;;;;11.83;6.10;;;;;;;-143.21;62.60;72800.03;4973937;28;20242;-84
2023/10/30 00:33:13;;;;;;;13.70;6.70;;;;;;;-143.21;62.54;72800.03;4977739;28;20209;-85
2023/10/30 00:35:40;;;;;;;13.63;6.43;;;;;;;-143.21;62.76;72809.94;4980445;28;20208;-85
2023/10/30 00:38:06;;;;;;;13.63;6.27;;;;;;;-143.21;62.97;72809.94;4979368;28;20588;-84
2023/10/30 00:40:35;;;;;;;15.30;6.20;;;;;;;-143.21;62.86;72809.94;4988946;28;20204;-86
2023/10/30 00:43:01;;;;;;;14.57;8.03;;;;;;;-143.21;62.87;72811.94;4986895;28;20208;-84
2023/10/30 00:45:28;;;;;;;15.33;7.47;;;;;;;-143.21;62.95;72813.91;4980234;28;20292;-84
2023/10/30 00:47:56;;;;;;;14.87;7.73;;;;;;;-143.21;63.17;72823.81;4980132;28;20228;-84
2023/10/30 00:50:24;;;;;;;14.70;9.07;;;;;;;-143.21;63.25;72823.81;4974315;28;20592;-84
2023/10/30 00:52:50;;;;;;;11.90;7.73;;;;;;;-143.21;63.09;72825.81;4965599;28;20198;-84
2023/10/30 00:55:17;;;;;;;21.80;8.37;;;;;;;-143.21;63.51;72835.72;4976602;28;20477;-84
2023/10/30 00:57:48;;;;;;;13.87;8.23;;;;;;;-143.21;63.83;72843.66;4979904;28;20632;-84
2023/10/30 01:00:15;;;;;;;20.83;10.07;;;;;;;-143.21;63.81;72847.63;4977795;28;20267;-84
2023/10/30 01:02:46;;;;;;;21.90;10.73;;;;;;;-143.21;64.13;72867.47;4985527;28;20232;-85
2023/10/30 01:05:13;;;;;;;24.07;11.43;;;;;;;-143.21;64.14;72865.47;4982047;28;20192;-85
2023/10/30 01:07:40;;;;;;;20.33;10.33;;;;;;;-143.21;63.96;72855.56;4977903;28;20216;-83
2023/10/30 01:10:07;;;;;;;15.07;10.27;;;;;;;-143.21;64.04;72857.53;4981507;28;20207;-82
2023/10/30 01:12:34;;;;;;;20.30;10.93;;;;;;;-143.21;63.69;72859.53;4974508;28;20239;-83
2023/10/30 01:15:02;;;;;;;23.73;10.80;;;;;;;-143.21;64.38;72867.47;4981577;28;20205;-84
2023/10/30 01:17:36;;;;;;;18.57;9.67;;;;;;;-143.21;64.38;72857.53;4988062;28;20211;-84
2023/10/30 01:20:09;;;;;;;19.70;9.10;;;;;;;-143.21;64.46;72873.41;4984166;28;20592;-85
2023/10/30 01:22:36;;;;;;;17.90;9.43;;;;;;;-143.21;64.65;72865.47;4979570;28;20231;-84
2023/10/30 01:25:03;;;;;;;11.33;6.63;;;;;;;-143.21;64.41;72871.44;4978739;28;20217;-84
2023/10/30 01:27:30;;;;;;;14.93;7.30;;;;;;;-143.21;64.49;72875.41;4981210;28;20208;-84
2023/10/30 01:29:57;;;;;;;14.10;7.20;;;;;;;-143.21;64.73;72875.41;4979162;28;20224;-84
2023/10/30 01:32:25;;;;;;;15.63;8.23;;;;;;;-143.21;64.41;72867.47;4977399;28;21684;-85
2023/10/30 01:34:52;;;;;;;16.50;7.10;;;;;;;-143.21;64.32;72871.44;4981673;28;20208;-84
2023/10/30 01:37:20;;;;;;;18.17;7.83;;;;;;;-143.21;64.64;72871.44;4973113;28;20236;-84
2023/10/30 01:39:47;;;;;;;16.23;7.70;;;;;;;-143.21;64.69;72873.41;4971974;28;20209;-85
2023/10/30 01:42:16;;;;;;;19.60;7.87;;;;;;;-143.21;64.70;72873.41;4990403;28;20204;-86
2023/10/30 01:44:56;;;;;;;12.97;7.23;;;;;;;-143.21;64.80;72877.38;4974513;28;20303;-85
2023/10/30 01:47:25;;;;;;;15.17;7.23;;;;;;;-143.21;64.62;72877.38;4978258;28;20215;-84
2023/10/30 01:49:53;;;;;;;14.83;7.20;;;;;;;-143.21;65.11;72883.31;4977649;28;20286;-85
2023/10/30 01:52:21;;;;;;;11.87;6.90;;;;;;;-143.21;64.84;72879.38;4982333;28;20204;-83
2023/10/30 01:55:08;;;;;;;13.87;7.13;;;;;;;-143.21;65.03;72887.28;4982385;28;20746;-83
2023/10/30 01:57:39;;;;;;;13.43;7.40;;;;;;;-143.21;65.02;72891.25;4977467;28;20192;-84
2023/10/30 02:00:09;;;;;;;12.53;6.97;;;;;;;-143.21;64.96;72885.31;4980239;28;20227;-85
2023/10/30 02:02:39;;;;;;;13.17;5.80;;;;;;;-143.21;65.01;72895.22;4970622;28;20726;-84
2023/10/30 02:05:13;;;;;;;12.03;7.00;;;;;;;-143.21;65.50;72905.16;4973430;28;20201;-84
2023/10/30 02:07:51;;;;;;;12.70;7.50;;;;;;;-143.21;65.70;72917.06;4974114;28;20204;-83
2023/10/30 02:10:18;;;;;;;14.10;7.20;;;;;;;-143.21;65.49;72915.06;4973419;28;20203;-84
2023/10/30 02:12:49;;;;;;;11.73;6.50;;;;;;;-143.21;65.76;72923.00;4979523;28;20602;-83
2023/10/30 02:15:16;;;;;;;11.70;6.33;;;;;;;-143.21;65.71;72924.97;4983142;28;20232;-84
2023/10/30 02:17:45;;;;;;;16.03;6.40;;;;;;;-143.21;66.03;72936.88;4977169;28;20210;-83
2023/10/30 02:20:12;;;;;;;9.80;5.63;;;;;;;-143.21;66.27;72944.81;4971592;28;20223;-83
2023/10/30 02:22:39;;;;;;;14.43;6.17;;;;;;;-143.21;66.56;72944.81;4974484;28;20257;-83
2023/10/30 02:25:07;;;;;;;13.93;6.03;;;;;;;-143.21;66.50;72946.81;4977714;28;20983;-84
2023/10/30 02:27:44;;;;;;;20.97;14.23;;;;;;;-143.21;66.50;72946.81;4979973;28;20204;-84
2023/10/30 02:30:12;;;;;;;14.27;7.60;;;;;;;-143.21;66.41;72950.78;4989733;28;20228;-83
2023/10/30 02:32:42;;;;;;;11.63;6.47;;;;;;;-143.21;66.43;72938.88;4977973;28;20800;-83
2023/10/30 02:35:11;;;;;;;11.30;6.07;;;;;;;-143.21;66.43;72934.91;4977257;28;20203;-83
2023/10/30 02:37:38;;;;;;;12.90;7.07;;;;;;;-143.21;66.85;72934.91;4971653;28;20267;-85
2023/10/30 02:40:06;;;;;;;12.07;7.07;;;;;;;-143.21;66.60;72932.91;4972501;28;20204;-84
2023/10/30 02:42:33;;;;;;;9.87;5.90;;;;;;;-143.21;66.12;72934.91;4979487;28;20211;-83
2023/10/30 02:45:01;;;;;;;10.50;6.10;;;;;;;-143.21;66.45;72936.88;4982278;28;20726;-83
2023/10/30 02:47:28;;;;;;;11.97;6.30;;;;;;;-143.21;66.14;72932.91;4974455;28;20558;-83
2023/10/30 02:49:55;;;;;;;12.33;6.37;;;;;;;-143.21;66.22;72934.91;4975875;28;20730;-83
2023/10/30 02:52:22;;;;;;;10.60;6.50;;;;;;;-143.21;66.58;72938.88;4977048;28;20204;-84
2023/10/30 02:54:49;;;;;;;11.77;6.93;;;;;;;-143.21;66.46;72946.81;4967942;28;20216;-83
2023/10/30 02:57:18;;;;;;;14.60;6.60;;;;;;;-143.21;66.90;72950.78;4971487;28;20205;-84
2023/10/30 02:59:45;;;;;;;13.17;7.20;;;;;;;-143.21;66.66;72952.75;4979941;28;20193;-84
2023/10/30 03:02:14;;;;;;;12.77;6.97;;;;;;;-143.21;66.39;72952.75;4978452;28;20208;-84
2023/10/30 03:04:40;;;;;;;11.80;6.43;;;;;;;-143.21;66.40;72948.78;4975366;28;20204;-86
2023/10/30 03:07:07;;;;;;;9.60;5.90;;;;;;;-143.21;66.64;72960.69;4978734;28;20212;-86
2023/10/30 03:09:37;;;;;;;13.53;6.27;;;;;;;-143.21;67.24;72966.63;4977708;28;20224;-85
2023/10/30 03:12:05;;;;;;;14.27;7.07;;;;;;;-143.21;67.00;72964.66;4980338;28;20224;-86
2023/10/30 03:14:41;;;;;;;12.90;6.03;;;;;;;-143.21;66.98;72962.66;4976486;28;20308;-86
2023/10/30 03:17:08;;;;;;;13.00;6.83;;;;;;;-143.21;66.99;72964.66;4978790;28;20287;-86
2023/10/30 03:19:36;;;;;;;12.07;6.30;;;;;;;-143.21;66.53;72968.63;4980350;28;20210;-85
2023/10/30 03:22:03;;;;;;;11.97;6.30;;;;;;;-143.21;67.53;72984.50;4983583;28;20204;-86
2023/10/30 03:24:30;;;;;;;14.57;7.10;;;;;;;-143.21;67.43;72982.50;4987219;28;20640;-85
2023/10/30 03:26:57;;;;;;;15.07;7.60;;;;;;;-143.21;67.45;73000.34;4980613;28;20201;-84
2023/10/30 03:29:24;;;;;;;15.07;7.83;;;;;;;-143.21;67.60;73000.34;4971305;28;20227;-84
2023/10/30 03:31:54;;;;;;;16.63;7.53;;;;;;;-143.21;67.33;72990.44;4976602;28;20228;-84
2023/10/30 03:34:21;;;;;;;12.13;7.70;;;;;;;-143.21;67.27;73000.34;4979297;28;20279;-85
2023/10/30 03:36:49;;;;;;;18.00;7.60;;;;;;;-143.21;67.61;72996.38;4982417;28;20211;-84
2023/10/30 03:39:16;;;;;;;16.07;8.47;;;;;;;-143.21;67.54;73002.34;4989392;28;20203;-85
2023/10/30 03:41:44;;;;;;;16.63;9.07;;;;;;;-143.21;67.61;73020.19;4982913;28;20225;-84
2023/10/30 03:44:11;;;;;;;20.17;10.33;;;;;;;-143.21;67.53;73020.19;4970919;28;20208;-84
2023/10/30 03:46:38;;;;;;;31.80;18.97;;;;;;;-143.21;67.39;73020.19;4972922;28;20220;-85
2023/10/30 03:49:05;;;;;;;28.07;18.20;;;;;;;-143.21;67.70;73016.22;4977719;28;20602;-84
2023/10/30 03:51:32;;;;;;;27.93;17.37;;;;;;;-143.21;67.61;73014.25;4984947;28;20224;-85
2023/10/30 03:54:00;;;;;;;26.40;17.20;;;;;;;-143.21;67.56;73018.22;4978936;28;20280;-84
2023/10/30 03:56:27;;;;;;;29.17;17.10;;;;;;;-143.21;67.56;73024.16;4985424;28;20204;-87
2023/10/30 03:58:54;;;;;;;26.13;14.70;;;;;;;-143.21;67.70;73020.19;4983490;28;20193;-86
2023/10/30 04:01:21;;;;;;;21.37;14.23;;;;;;;-143.21;67.67;73018.22;4977608;28;20227;-87
2023/10/30 04:03:48;;;;;;;18.07;10.90;;;;;;;-143.21;67.77;73022.19;4982093;28;20211;-86
2023/10/30 04:06:16;;;;;;;17.00;8.80;;;;;;;-143.21;67.13;73024.16;4980297;28;20204;-85
2023/10/30 04:08:42;;;;;;;15.83;9.27;;;;;;;-143.21;67.58;73024.16;4987022;28;20243;-85
2023/10/30 04:11:13;;;;;;;17.00;8.30;;;;;;;-143.21;67.67;73026.16;4985162;28;20208;-85
2023/10/30 04:13:40;;;;;;;14.83;8.80;;;;;;;-143.21;67.76;73024.16;4981135;28;20229;-85
2023/10/30 04:16:07;;;;;;;18.50;9.67;;;;;;;-143.21;67.81;73024.16;4981998;28;20224;-85
2023/10/30 04:18:34;;;;;;;19.47;10.63;;;;;;;-143.21;67.51;73020.19;4973781;28;20726;-85
2023/10/30 04:21:01;;;;;;;19.67;10.20;;;;;;;-143.21;67.59;73018.22;4979586;28;20220;-85
2023/10/30 04:23:30;;;;;;;16.00;10.17;;;;;;;-143.21;67.69;73022.19;4983642;28;20205;-85
2023/10/30 04:25:57;;;;;;;15.77;9.40;;;;;;;-143.21;67.81;73030.09;4978480;28;20283;-85
2023/10/30 04:28:25;;;;;;;17.63;10.23;;;;;;;-143.21;67.69;73020.19;4976566;28;20259;-84
2023/10/30 04:33:33;;;;;;;19.40;10.37;;;;;;;-143.21;68.10;73042.00;4974837;28;20217;-85
2023/10/30 04:36:02;;;;;;;20.53;11.87;;;;;;;-143.21;68.68;73053.91;4973550;28;20220;-85
2023/10/30 04:41:16;;;;;;;24.33;13.10;;;;;;;-143.21;68.24;73057.88;4969727;28;20205;-84
2023/10/30 04:43:44;;;;;;;31.63;13.97;;;;;;;-143.21;68.23;73057.88;4984341;28;20204;-83
2023/10/30 04:46:11;;;;;;;22.03;12.07;;;;;;;-143.21;67.62;73049.94;4983350;28;20242;-85
2023/10/30 04:48:41;;;;;;;30.37;12.40;;;;;;;-143.21;68.42;73055.91;4972815;28;20220;-88
2023/10/30 04:51:08;;;;;;;27.63;11.30;;;;;;;-143.21;67.73;73057.88;4982180;28;20208;-86
2023/10/30 04:53:42;;;;;;;24.47;11.13;;;;;;;-143.21;67.80;73063.84;4970520;28;20267;-86
2023/10/30 04:59:07;;;;;;;34.87;12.07;;;;;;;-143.21;67.90;73063.84;4985561;28;20222;-87
2023/10/30 05:01:34;;;;;;;25.83;11.70;;;;;;;-143.21;67.82;73057.88;4981310;28;20577;-87
2023/10/30 05:04:03;;;;;;;23.23;12.40;;;;;;;-143.21;68.16;73069.78;4979754;28;20208;-85
2023/10/30 05:06:30;;;;;;;28.90;12.30;;;;;;;-143.21;67.81;73069.78;4979975;28;20287;-85
2023/10/30 05:08:56;;;;;;;22.27;12.07;;;;;;;-143.21;67.89;73073.75;4984901;28;20215;-86
2023/10/30 05:11:23;;;;;;;33.37;14.00;;;;;;;-143.21;68.23;73079.69;4978539;28;20580;-85
2023/10/30 05:13:50;;;;;;;31.40;14.20;;;;;;;-143.21;68.63;73091.59;4983317;28;20211;-85
2023/10/30 05:16:18;;;;;;;30.30;13.97;;;;;;;-143.21;68.76;73089.63;4981499;28;20201;-86
2023/10/30 05:18:45;;;;;;;26.53;12.83;;;;;;;-143.21;69.10;73097.56;4995044;28;20207;-86
2023/10/30 05:21:12;;;;;;;33.97;13.80;;;;;;;-143.21;69.25;73103.50;4986413;28;20200;-86
2023/10/30 05:23:38;;;;;;;33.93;13.97;;;;;;;-143.21;68.89;73095.56;4974718;28;20228;-85
2023/10/30 05:26:05;;;;;;;36.27;13.77;;;;;;;-143.21;68.97;73099.53;4985948;28;20318;-86
2023/10/30 05:28:32;;;;;;;25.87;13.47;;;;;;;-143.21;69.67;73107.47;4970426;28;20235;-87
2023/10/30 05:30:59;;;;;;;25.77;12.83;;;;;;;-143.21;69.21;73103.50;4973801;28;20241;-85
2023/10/30 05:33:27;;;;;;;20.97;10.63;;;;;;;-143.21;69.46;73107.47;4979326;28;20208;-84
2023/10/30 05:35:54;;;;;;;25.07;12.93;;;;;;;-143.21;69.55;73103.50;4980426;28;20733;-83
2023/10/30 05:38:22;;;;;;;22.20;11.87;;;;;;;-143.21;69.81;73097.56;4977763;28;20197;-81
2023/10/30 05:40:49;;;;;;;39.70;13.23;;;;;;;-143.21;69.63;73097.56;4975477;28;20227;-84
2023/10/30 05:43:16;;;;;;;25.70;13.00;;;;;;;-143.21;69.50;73099.53;4984074;28;20208;-84
2023/10/30 05:45:43;;;;;;;22.53;13.77;;;;;;;-143.21;69.48;73095.56;4973346;28;20215;-84
2023/10/30 05:48:09;;;;;;;28.00;14.63;;;;;;;-143.21;68.74;73095.56;4974482;28;20268;-84
2023/10/30 05:50:38;;;;;;;34.53;16.60;;;;;;;-143.21;69.06;73087.63;4976490;28;20228;-83
2023/10/30 05:53:05;;;;;;;55.20;20.17;;;;;;;-143.21;68.87;73087.63;4981027;28;20718;-82
2023/10/30 05:55:31;;;;;;;52.00;23.43;;;;;;;-143.21;68.86;73087.63;4968843;28;20849;-83
2023/10/30 05:57:58;;;;;;;51.17;22.00;;;;;;;-143.21;68.65;73083.66;4981250;28;20554;-82
2023/10/30 06:00:25;;;;;;;45.37;19.83;;;;;;;-143.21;68.94;73081.69;4978167;28;20216;-82
2023/10/30 06:02:52;;;;;;;39.53;20.43;;;;;;;-143.21;69.08;73091.59;4979789;28;20215;-83
2023/10/30 06:05:24;;;;;;;40.80;21.33;;;;;;;-143.21;69.19;73071.75;4979200;28;20216;-83
2023/10/30 06:07:52;;;;;;;42.47;20.73;;;;;;;-143.21;68.94;73071.75;4973282;28;20307;-82
2023/10/30 06:10:20;;;;;;;47.73;21.03;;;;;;;-143.21;68.59;73061.84;4982390;28;20248;-82
2023/10/30 06:12:47;;;;;;;45.30;19.77;;;;;;;-143.21;68.64;73059.88;4982275;28;20204;-79
2023/10/30 06:15:14;;;;;;;43.73;19.67;;;;;;;-143.21;68.66;73061.84;4976183;28;20209;-82
2023/10/30 06:17:41;;;;;;;39.67;18.70;;;;;;;-143.21;68.63;73055.91;4980026;28;20304;-84
2023/10/30 06:20:09;;;;;;;38.40;17.47;;;;;;;-143.21;68.41;73055.91;4971550;28;20200;-83
2023/10/30 06:22:38;;;;;;;37.93;17.33;;;;;;;-143.21;68.61;73045.97;4971950;28;20650;-82
2023/10/30 06:25:14;;;;;;;39.60;18.77;;;;;;;-143.21;68.55;73042.00;4976528;28;20304;-82
2023/10/30 06:27:41;;;;;;;54.83;26.90;;;;;;;-143.21;68.55;73042.00;4979363;28;20200;-82
2023/10/30 06:30:09;;;;;;;36.43;16.10;;;;;;;-143.21;68.84;73049.94;4975142;28;20723;-83
2023/10/30 06:32:36;;;;;;;38.30;14.40;;;;;;;-143.21;68.61;73030.09;4976736;28;20258;-84
2023/10/30 06:35:03;;;;;;;33.47;14.33;;;;;;;-143.21;68.59;73032.09;4979920;28;20231;-83
2023/10/30 06:37:30;;;;;;;29.07;13.90;;;;;;;-143.21;68.31;73024.16;4976347;28;20212;-82
2023/10/30 06:39:58;;;;;;;24.60;12.90;;;;;;;-143.21;67.66;73014.25;4980434;28;20267;-84
2023/10/30 06:42:26;;;;;;;31.57;12.87;;;;;;;-143.21;67.81;73004.31;4971751;28;20629;-85
2023/10/30 06:44:53;;;;;;;24.07;12.73;;;;;;;-143.21;67.43;72996.38;4978416;28;20286;-83
2023/10/30 06:47:20;;;;;;;22.67;11.57;;;;;;;-143.21;67.57;72996.38;4983637;28;20286;-83
2023/10/30 06:49:47;;;;;;;26.53;11.83;;;;;;;-143.21;67.78;72988.47;4975160;28;20610;-82
2023/10/30 06:52:14;;;;;;;26.37;11.10;;;;;;;-143.21;67.19;72972.59;4968586;28;20213;-82
2023/10/30 06:54:40;;;;;;;20.43;11.20;;;;;;;-143.21;66.88;72962.66;4971409;28;20637;-82
2023/10/30 06:57:07;;;;;;;19.57;10.50;;;;;;;-143.21;66.92;72948.78;4965294;28;20579;-83
2023/10/30 06:59:35;;;;;;;19.33;9.80;;;;;;;-143.21;66.39;72936.88;4975326;28;20223;-81
2023/10/30 07:02:03;;;;;;;18.20;10.37;;;;;;;-143.21;66.50;72936.88;4982026;28;21174;-83
2023/10/30 07:04:32;;;;;;;23.00;10.20;;;;;;;-143.21;66.24;72926.97;4974713;28;20754;-83
2023/10/30 07:06:59;;;;;;;21.67;9.70;;;;;;;-143.21;65.81;72921.00;4974340;28;20257;-85
2023/10/30 07:09:26;;;;;;;22.40;10.10;;;;;;;-143.21;65.65;72911.09;4976177;28;20201;-83
2023/10/30 07:11:53;;;;;;;18.97;10.03;;;;;;;-143.21;65.54;72899.19;4982228;28;20659;-84
2023/10/30 07:14:19;;;;;;;29.03;10.30;;;;;;;-143.21;65.59;72893.25;4970069;28;20216;-83
2023/10/30 07:16:48;;;;;;;19.33;9.50;;;;;;;-143.21;65.36;72885.31;4981352;28;20224;-83
2023/10/30 07:19:15;;;;;;;25.70;10.00;;;;;;;-143.21;65.33;72879.38;4982835;28;20213;-86
2023/10/30 07:21:42;;;;;;;20.17;9.40;;;;;;;-143.21;64.93;72875.41;4977689;28;20572;-83
2023/10/30 07:24:10;;;;;;;22.90;9.67;;;;;;;-143.21;64.92;72865.47;4975278;28;20204;-82
2023/10/30 07:26:36;;;;;;;25.67;9.80;;;;;;;-143.21;64.52;72851.59;4982296;28;20203;-84
2023/10/30 07:29:03;;;;;;;22.13;10.03;;;;;;;-143.21;64.22;72849.59;4982217;28;20204;-83
2023/10/30 07:31:30;;;;;;;18.40;9.37;;;;;;;-143.21;63.67;72833.75;4976062;28;20364;-82
2023/10/30 07:33:58;;;;;;;20.23;9.07;;;;;;;-143.21;63.80;72831.75;4988394;28;20196;-85
2023/10/30 07:36:26;;;;;;;22.13;9.17;;;;;;;-143.21;63.73;72823.81;4975124;28;20207;-85
2023/10/30 07:38:53;;;;;;;14.80;8.87;;;;;;;-143.21;63.32;72811.94;4983861;28;20244;-83
2023/10/30 07:41:20;;;;;;;22.03;9.00;;;;;;;-143.21;63.51;72809.94;4974422;28;20211;-84
2023/10/30 07:43:47;;;;;;;21.70;9.97;;;;;;;-143.21;63.05;72809.94;4972599;28;20283;-84
2023/10/30 07:46:14;;;;;;;19.60;9.80;;;;;;;-143.21;62.69;72794.06;4975105;28;20303;-85
2023/10/30 07:48:43;;;;;;;18.97;9.43;;;;;;;-143.21;62.05;72778.22;4978818;28;20271;-85
2023/10/30 07:51:11;;;;;;;17.83;9.07;;;;;;;-143.21;61.93;72780.19;4979618;28;20236;-85
2023/10/30 07:53:38;;;;;;;21.27;9.93;;;;;;;-143.21;62.23;72780.19;4979504;28;20201;-84
2023/10/30 07:56:05;;;;;;;23.07;9.70;;;;;;;-143.21;61.96;72772.25;4988390;28;20216;-84
2023/10/30 07:58:33;;;;;;;15.20;9.03;;;;;;;-143.21;61.64;72754.41;4969937;28;20291;-84
2023/10/30 08:01:00;;;;;;;19.43;9.70;;;;;;;-143.21;61.60;72752.41;4974494;28;20235;-84
2023/10/30 08:03:27;;;;;;;15.03;9.17;;;;;;;-143.21;61.36;72740.53;4975575;28;20228;-84
2023/10/30 08:05:54;;;;;;;19.70;9.63;;;;;;;-143.21;61.08;72728.63;4980152;28;20204;-86
2023/10/30 08:08:23;;;;;;;25.90;10.60;;;;;;;-143.21;60.35;72712.75;4981434;28;20560;-85
2023/10/30 08:10:50;;;;;;;25.40;10.57;;;;;;;-143.21;60.02;72710.78;4980612;28;20228;-85
2023/10/30 08:13:17;;;;;;;26.93;11.07;;;;;;;-143.21;60.28;72702.84;4978327;28;20255;-83
2023/10/30 08:15:43;;;;;;;19.40;10.73;;;;;;;-143.21;60.34;72688.94;4977214;28;20212;-85
2023/10/30 08:18:10;;;;;;;17.63;10.23;;;;;;;-143.21;59.99;72679.03;4979075;28;20216;-84
2023/10/30 08:20:37;;;;;;;24.20;11.00;;;;;;;-143.21;59.99;72661.19;4977362;28;20209;-83
2023/10/30 08:23:04;;;;;;;27.03;11.10;;;;;;;-143.21;59.42;72657.22;4979922;28;20220;-85
2023/10/30 08:25:32;;;;;;;26.60;11.10;;;;;;;-143.21;58.89;72639.38;4974969;28;20208;-83
2023/10/30 08:28:00;;;;;;;20.47;10.50;;;;;;;-143.21;58.63;72631.44;4972699;28;20251;-84
2023/10/30 08:30:27;;;;;;;18.87;9.83;;;;;;;-143.21;57.94;72605.66;4972330;28;20248;-87
2023/10/30 08:32:53;;;;;;;17.03;9.60;;;;;;;-143.21;58.27;72605.66;4969016;28;20193;-85
2023/10/30 08:35:20;;;;;;;20.57;10.30;;;;;;;-143.21;58.39;72599.69;4979553;28;20675;-85
2023/10/30 08:37:47;;;;;;;16.83;9.67;;;;;;;-143.21;58.12;72593.75;4982083;28;20230;-84
2023/10/30 08:40:15;;;;;;;15.63;9.97;;;;;;;-143.21;57.84;72587.81;4982358;28;20216;-86
2023/10/30 08:42:43;;;;;;;20.83;10.13;;;;;;;-143.21;58.15;72577.88;4982060;28;20264;-83
2023/10/30 08:45:11;;;;;;;22.57;11.07;;;;;;;-143.21;57.48;72562.03;4975904;28;20225;-82
2023/10/30 08:47:38;;;;;;;25.77;12.13;;;;;;;-143.21;57.29;72548.13;4988864;28;20192;-85
2023/10/30 08:50:07;;;;;;;23.67;11.37;;;;;;;-143.21;57.27;72528.31;4979376;28;20691;-85
2023/10/30 08:52:34;;;;;;;22.50;11.03;;;;;;;-143.21;56.63;72516.41;4977457;28;20211;-85
2023/10/30 08:55:01;;;;;;;29.97;11.50;;;;;;;-143.21;55.47;72468.81;4982708;28;20220;-85
2023/10/30 08:57:28;;;;;;;23.97;12.07;;;;;;;-143.21;54.43;72399.41;4975556;28;20605;-84
2023/10/30 08:59:56;;;;;;;22.23;10.80;;;;;;;-143.21;52.45;72316.09;4977341;28;20613;-85
2023/10/30 09:02:23;;;;;;;31.50;11.87;;;;;;;-143.21;50.83;72238.75;4977974;28;20929;-85
2023/10/30 09:04:50;;;;;;;26.10;11.40;;;;;;;-143.21;48.40;72155.47;4977631;28;20211;-85
2023/10/30 09:07:17;;;;;;;25.90;11.37;;;;;;;-143.21;46.56;72070.19;4975447;28;20204;-85
2023/10/30 09:09:44;;;;;;;21.65;11.05;;;;;;;-143.21;45.21;71977.00;4988435;28;20204;-85
2023/10/30 09:12:11;;;;;;;20.70;9.70;;;;;;;-143.21;43.38;71905.63;4976151;28;20216;-85
2023/10/30 09:14:48;;;;;;;21.15;9.85;;;;;;;-143.21;42.41;71832.25;4975727;28;20213;-84
2023/10/30 09:17:16;;;;;;;18.55;9.27;;;;;;;-143.21;41.31;71768.78;4978866;28;20204;-82
2023/10/30 09:19:46;;;;;;;25.05;9.35;;;;;;;-143.21;39.95;71691.47;4972584;28;20227;-83
2023/10/30 09:22:13;;;;;;;18.05;9.35;;;;;;;-143.21;39.58;71639.91;4973184;28;20272;-86
2023/10/30 09:24:39;;;;;;;19.60;8.85;;;;;;;-143.21;39.22;71568.53;4981058;28;20267;-82
2023/10/30 09:27:07;;;;;;;19.48;8.88;;;;;;;-143.21;38.34;71505.09;4979465;28;20208;-83
2023/10/30 09:29:35;;;;;;;19.38;9.25;;;;;;;-143.21;37.41;71437.69;4983056;28;20211;-84
2023/10/30 09:32:03;;;;;;;17.58;8.77;;;;;;;-143.21;36.63;71392.06;4986601;28;21012;-83
2023/10/30 09:34:34;;;;;;;18.20;8.82;;;;;;;-143.21;36.24;71324.66;4975622;28;21107;-84
2023/10/30 09:37:01;;;;;;;19.75;8.57;;;;;;;-143.21;35.42;71253.28;4979236;28;20258;-83
2023/10/30 09:39:27;;;;;;;20.17;8.40;;;;;;;-143.21;34.63;71185.88;4973791;28;20201;-83
2023/10/30 09:41:59;;;;;;;22.42;8.85;;;;;;;-143.21;33.90;71126.41;4981394;28;20211;-82
2023/10/30 09:44:26;;;;;;;21.17;9.15;;;;;;;-143.21;33.35;71082.81;4976880;28;20650;-83
2023/10/30 09:46:53;;;;;;;18.02;9.40;;;;;;;-143.21;32.98;71064.97;4979846;28;20200;-81
2023/10/30 09:49:23;;;;;;;24.02;9.95;;;;;;;-143.21;32.64;71001.53;4980684;28;20227;-81
2023/10/30 09:52:56;;;;;;;26.05;9.88;;;;;;;-143.21;31.87;70967.81;4969594;28;20319;-85
2023/10/30 09:58:43;;;;;;;22.95;9.35;;;;;;;-143.21;31.58;70936.09;4972217;28;20258;-83
2023/10/30 10:01:10;;;;;;;19.00;8.07;;;;;;;-143.21;31.39;70884.56;4975677;28;20216;-84
2023/10/30 10:03:37;;;;;;;15.20;8.10;;;;;;;-143.21;31.02;70829.06;4974031;28;20204;-84
2023/10/30 10:06:04;;;;;;;25.63;9.02;;;;;;;-143.21;30.69;70844.91;4977140;28;20200;-82
2023/10/30 10:08:31;;;;;;;20.42;9.50;;;;;;;-143.21;30.75;70821.13;4970468;28;21557;-83
2023/10/30 10:11:01;;;;;;;16.58;8.27;;;;;;;-143.21;30.51;70783.47;4977315;28;20235;-83
2023/10/30 10:13:32;;;;;;;19.63;8.25;;;;;;;-143.21;30.24;70747.78;4981665;28;20212;-83
2023/10/30 10:16:00;;;;;;;17.58;7.93;;;;;;;-143.21;29.60;70700.22;4982564;28;20219;-83
2023/10/30 10:18:28;;;;;;;16.60;7.03;;;;;;;-143.21;29.34;70668.50;4978348;28;20235;-83
2023/10/30 10:20:56;;;;;;;14.68;7.10;;;;;;;-143.21;29.02;70646.69;4975055;28;20196;-84
2023/10/30 10:23:23;;;;;;;13.35;7.30;;;;;;;-143.21;29.26;70650.66;4974480;28;20646;-86
2023/10/30 10:25:55;;;;;;;13.85;7.68;;;;;;;-143.21;28.84;70624.88;4968665;28;20204;-83
2023/10/30 10:28:23;;;;;;;20.55;8.25;;;;;;;-143.21;28.93;70609.03;4973555;28;20216;-83
2023/10/30 10:30:51;;;;;;;31.10;12.50;;;;;;;-143.21;28.98;70593.19;4981162;28;20243;-83
2023/10/30 10:33:20;;;;;;;27.15;9.70;;;;;;;-143.21;28.55;70589.22;4978058;28;20312;-83
2023/10/30 10:35:48;;;;;;;13.85;6.40;;;;;;;-143.21;28.23;70563.44;4974037;28;20227;-83
2023/10/30 10:38:16;;;;;;;11.63;5.50;;;;;;;-143.21;27.91;70529.75;4977785;28;20215;-84
2023/10/30 10:40:46;;;;;;;11.23;5.05;;;;;;;-143.21;28.00;70498.03;4975800;28;20316;-83
2023/10/30 10:43:16;;;;;;;21.05;7.15;;;;;;;-143.21;27.39;70452.44;4970881;28;20243;-84
2023/10/30 10:45:46;;;;;;;46.08;19.92;;;;;;;-143.21;27.63;70460.38;4977593;28;20575;-84
2023/10/30 10:48:13;;;;;;;52.28;21.02;;;;;;;-143.21;27.46;70452.44;4975417;28;20193;-82
2023/10/30 10:50:40;;;;;;;23.08;9.05;;;;;;;-143.21;27.42;70462.34;4973543;28;20312;-83
2023/10/30 10:53:07;;;;;;;11.18;5.05;;;;;;;-143.21;27.21;70452.44;4978124;28;20217;-83
2023/10/30 10:55:40;;;;;;;13.20;6.00;;;;;;;-143.21;27.00;70408.84;4978898;28;20201;-84
2023/10/30 10:58:10;;;;;;;12.38;4.72;;;;;;;-143.21;27.21;70416.78;4981516;28;20518;-84
2023/10/30 11:00:44;;;;;;;7.13;4.05;;;;;;;-143.21;26.83;70379.09;4974294;28;20295;-83
2023/10/30 11:03:13;;;;;;;10.13;3.83;;;;;;;-143.21;26.35;70341.44;4972484;28;20200;-83
2023/10/30 11:05:41;;;;;;;18.70;7.22;;;;;;;-143.21;26.29;70329.56;4968163;28;20737;-84
2023/10/30 11:08:33;;;;;;;75.43;28.77;;;;;;;-143.21;26.18;70309.75;4970289;28;20217;-83
2023/10/30 11:11:11;;;;;;;10.65;4.88;;;;;;;-143.21;25.95;70276.03;4979439;28;20228;-81
2023/10/30 11:13:58;;;;;;;12.88;6.85;;;;;;;-143.21;25.76;70258.22;4974056;28;20606;-83
2023/10/30 11:16:38;;;;;;;9.43;3.80;;;;;;;-143.21;25.55;70264.16;4970087;28;20193;-83
2023/10/30 11:22:34;;;;;;;10.57;4.35;;;;;;;-143.21;25.79;70222.53;4965024;28;20223;-83
2023/10/30 11:25:04;;;;;;;7.07;3.65;;;;;;;-143.21;25.37;70204.69;4970954;28;20215;-84
2023/10/30 11:27:36;;;;;;;9.52;3.40;;;;;;;-143.21;25.53;70196.78;4968187;28;20319;-83